Terminal Aerodrome Forecast
Issued by NWS

Home | Current Version | Previous Version | Text Only | Print | Product List | Glossary On
Versions: 1 2 3 4 5 6 7 8 9 10 11 12 13 14 15 16 17 18 19 20 21 22 23 24 25 26 27 28 29 30 31 32 33 34
000
FTAK31 PANC 201137
TAFADU
TAF
PADU 201137Z 2012/2112 31014G22KT 6SM -SHSN SCT020 BKN050
      TEMPO 2012/2016 1SM -SHSN BR BKN008 OVC020
     FM201600 33015G25KT 5SM -SN SCT020 BKN030=

USA.gov is the U.S. government's official web portal to all federal, state and local government web resources and services.